Genesis Valiant — WDG9348 — position and weather

sailwx.info

Track history (hours):
 
Tides and Currents Weather Stations Pressure Air Temp Water Temp Dewpoint Dewpoint Depression Visibility Wind Speed Wind Dir Waves Ship Positions

Genesis Valiant

Owner: Genesis Marine, LLC, Houston, TX. More information available from US FCC via Universal Licensing System and Coast Guard Vessel Documentation Center.

Last reported at 2018-Jun-18 03:28 UTC. Time now 2018-Jun-18 03:47 UTC.
Position N 39°52' W 075°14'.

Length 30 m; draft 5.8 m.

Type: Towing. MMSI: 338495000.

Date/timePositionNaut miles runAvg speedWind from/ knotsBaromVisibWave heightAir tempDewpointWater temp
2018-Jun-18 03:28N 39°52' W 075°14'0 0.0
2018-Jun-18 02:58N 39°52' W 075°14'0 0.0
2018-Jun-18 02:28N 39°52' W 075°14'0 0.0
2018-Jun-18 01:58N 39°52' W 075°14'0 0.0
2018-Jun-18 01:28N 39°52' W 075°14'0 0.0
2018-Jun-18 00:58N 39°52' W 075°14'0 0.0
2018-Jun-18 00:28N 39°52' W 075°14'0 0.1
2018-Jun-17 23:58N 39°52' W 075°14'0 0.2
2018-Jun-17 23:28N 39°51' W 075°14'0 0.3
2018-Jun-17 22:58N 39°52' W 075°13'1 2.4
2018-Jun-17 22:30N 39°52' W 075°12'3 7.0
2018-Jun-17 22:00N 39°54' W 075°08'0 0.2
2018-Jun-17 21:29N 39°54' W 075°08'0 0.0
2018-Jun-17 20:59N 39°54' W 075°08'0 0.0
2018-Jun-17 20:26N 39°54' W 075°08'0 0.0
2018-Jun-17 19:59N 39°54' W 075°08'0 0.0
2018-Jun-17 19:29N 39°54' W 075°08'0 0.0
2018-Jun-17 18:55N 39°54' W 075°08'0 0.0
2018-Jun-17 18:30N 39°54' W 075°08'0 0.0
2018-Jun-17 18:00N 39°54' W 075°08'0 0.0
2018-Jun-17 17:30N 39°54' W 075°08'0 0.0
2018-Jun-17 17:01N 39°54' W 075°08'0 0.0
2018-Jun-17 16:31N 39°54' W 075°08'0 0.0
2018-Jun-17 16:00N 39°54' W 075°08'0 0.0
2018-Jun-17 15:30N 39°54' W 075°08'0 0.0
2018-Jun-17 15:00N 39°54' W 075°08'0 0.0
2018-Jun-17 14:30N 39°54' W 075°08'0 0.0
2018-Jun-17 14:00N 39°54' W 075°08'0 0.0
2018-Jun-17 13:30N 39°54' W 075°08'0 0.0
2018-Jun-17 13:00N 39°54' W 075°08'0 0.0
2018-Jun-17 12:30N 39°54' W 075°08'0 0.0
2018-Jun-17 12:00N 39°54' W 075°08'0 0.0
2018-Jun-17 11:30N 39°54' W 075°08'0 0.0
2018-Jun-17 11:00N 39°54' W 075°08'0 0.0
2018-Jun-17 10:30N 39°54' W 075°08'0 0.0
2018-Jun-17 10:00N 39°54' W 075°08'0 0.0
2018-Jun-17 09:30N 39°54' W 075°08'2 3.0
2018-Jun-17 09:00N 39°53' W 075°10'3 5.6
2018-Jun-17 08:30N 39°52' W 075°13'0 0.0
2018-Jun-17 08:00N 39°52' W 075°13'0 0.0
2018-Jun-17 07:30N 39°52' W 075°13'0 0.0
2018-Jun-17 06:57N 39°52' W 075°13'0 0.0
2018-Jun-17 06:30N 39°52' W 075°13'0 0.0
2018-Jun-17 06:00N 39°52' W 075°13'0 0.0
2018-Jun-17 05:30N 39°52' W 075°13'0 0.0
2018-Jun-17 05:00N 39°52' W 075°13'0 0.0
2018-Jun-17 04:30N 39°52' W 075°13'0 0.2
2018-Jun-17 03:57N 39°52' W 075°13'0 0.2
2018-Jun-17 03:30N 39°52' W 075°14'0 0.0
2018-Jun-17 03:00N 39°52' W 075°14'0 0.1
2018-Jun-17 02:30N 39°52' W 075°14'0 0.0
2018-Jun-17 02:00N 39°52' W 075°14'0 0.0
2018-Jun-17 01:30N 39°52' W 075°14'0 0.1
2018-Jun-17 01:00N 39°52' W 075°14'0 0.0
2018-Jun-17 00:30N 39°52' W 075°14'0 0.0
2018-Jun-17 00:00N 39°52' W 075°14'0 0.0
2018-Jun-16 23:30N 39°52' W 075°14'0 0.0
2018-Jun-16 23:00N 39°52' W 075°14'0 0.0
2018-Jun-16 22:30N 39°52' W 075°14'0 0.3
2018-Jun-16 22:00N 39°52' W 075°13'0 0.1
2018-Jun-16 21:30N 39°52' W 075°13'0 0.0
2018-Jun-16 21:00N 39°52' W 075°13'0 0.0
2018-Jun-16 20:30N 39°52' W 075°13'0 0.0
2018-Jun-16 20:00N 39°52' W 075°13'0 0.0
2018-Jun-16 19:30N 39°52' W 075°13'0 0.0
2018-Jun-16 19:00N 39°52' W 075°13'0 0.0
2018-Jun-16 18:30N 39°52' W 075°13'0 0.0
2018-Jun-16 18:00N 39°52' W 075°13'0 0.0
2018-Jun-16 17:30N 39°52' W 075°13'0 0.0
2018-Jun-16 17:00N 39°52' W 075°13'0 0.0
2018-Jun-16 16:30N 39°52' W 075°13'0 0.3
2018-Jun-16 16:00N 39°52' W 075°13'0 0.1
2018-Jun-16 15:30N 39°52' W 075°14'0 0.0
2018-Jun-16 15:00N 39°52' W 075°14'0 0.0
2018-Jun-16 14:30N 39°52' W 075°14'0 0.0
2018-Jun-16 14:00N 39°52' W 075°14'0 0.0
2018-Jun-16 13:30N 39°52' W 075°14'0 0.0
2018-Jun-16 13:00N 39°52' W 075°14'0 0.0
2018-Jun-16 12:30N 39°52' W 075°14'0 0.0
2018-Jun-16 12:00N 39°52' W 075°14'0 0.0
2018-Jun-16 11:30N 39°52' W 075°14'0 0.0
2018-Jun-16 11:00N 39°52' W 075°14'0 0.0
2018-Jun-16 10:30N 39°52' W 075°14'0 0.0
2018-Jun-16 10:00N 39°52' W 075°14'0 0.0
2018-Jun-16 09:30N 39°52' W 075°14'0 0.2
2018-Jun-16 09:00N 39°52' W 075°13'0 0.1
2018-Jun-16 08:30N 39°52' W 075°13'0 0.0
2018-Jun-16 08:00N 39°52' W 075°13'0 0.0
2018-Jun-16 07:30N 39°52' W 075°13'0 0.0
2018-Jun-16 07:00N 39°52' W 075°13'0 0.0
2018-Jun-16 06:30N 39°52' W 075°13'0 0.0
2018-Jun-16 06:00N 39°52' W 075°13'0 0.0
2018-Jun-16 05:30N 39°52' W 075°13'0 0.0
2018-Jun-16 05:00N 39°52' W 075°13'0 0.0
2018-Jun-16 04:30N 39°52' W 075°13'0 0.0
2018-Jun-16 04:00N 39°52' W 075°13'0 0.0
2018-Jun-16 03:30N 39°52' W 075°13'0 0.2
2018-Jun-16 03:00N 39°52' W 075°13'0 0.2
2018-Jun-16 02:30N 39°52' W 075°14'0 0.1
2018-Jun-16 02:00N 39°52' W 075°13'0 0.1
2018-Jun-16 01:30N 39°52' W 075°14'0 0.0
2018-Jun-16 01:00N 39°52' W 075°13'0 0.0
2018-Jun-16 00:30N 39°52' W 075°13'0 0.0
2018-Jun-16 00:00N 39°52' W 075°13'0 0.0
2018-Jun-15 23:30N 39°52' W 075°13'0 0.1
2018-Jun-15 22:57N 39°52' W 075°13'0 0.1
2018-Jun-15 22:30N 39°52' W 075°13'0 0.0
2018-Jun-15 22:00N 39°52' W 075°13'0 0.0
2018-Jun-15 21:30N 39°52' W 075°13'0 0.1
2018-Jun-15 21:00N 39°52' W 075°13'0 0.1
2018-Jun-15 20:30N 39°52' W 075°13'0 0.1
2018-Jun-15 19:48N 39°52' W 075°13'0 0.1
2018-Jun-15 19:30N 39°52' W 075°13'0 0.1
2018-Jun-15 19:00N 39°52' W 075°13'0 0.0
2018-Jun-15 18:30N 39°52' W 075°13'0 0.0
2018-Jun-15 18:00N 39°52' W 075°13'0 0.0
2018-Jun-15 17:30N 39°52' W 075°13'0 0.1
2018-Jun-15 17:00N 39°52' W 075°13'0 0.0
2018-Jun-15 16:30N 39°52' W 075°13'0 0.0
2018-Jun-15 16:00N 39°52' W 075°13'0 0.1
2018-Jun-15 15:30N 39°52' W 075°13'0 0.1
2018-Jun-15 15:00N 39°52' W 075°13'0 0.2
2018-Jun-15 14:30N 39°52' W 075°13'0 0.1
2018-Jun-15 14:00N 39°52' W 075°13'0 0.0
2018-Jun-15 13:30N 39°52' W 075°13'0 0.1
2018-Jun-15 13:00N 39°52' W 075°13'0 0.0
2018-Jun-15 12:30N 39°52' W 075°14'0 0.0
2018-Jun-15 12:00N 39°52' W 075°13'0 0.0
2018-Jun-15 11:30N 39°52' W 075°14'0 0.0
2018-Jun-15 11:00N 39°52' W 075°13'0 0.0
2018-Jun-15 10:30N 39°52' W 075°14'0 0.0
2018-Jun-15 10:00N 39°52' W 075°14'0 0.0
2018-Jun-15 09:30N 39°52' W 075°13'0 0.0
2018-Jun-15 09:00N 39°52' W 075°13'0 0.1
2018-Jun-15 08:30N 39°52' W 075°13'0 0.1
2018-Jun-15 07:57N 39°52' W 075°13'0 0.1
2018-Jun-15 07:30N 39°52' W 075°13'0 0.0
2018-Jun-15 07:00N 39°52' W 075°13'0 0.0
2018-Jun-15 06:30N 39°52' W 075°13'0 0.0
2018-Jun-15 06:00N 39°52' W 075°13'0 0.0
2018-Jun-15 05:30N 39°52' W 075°13'0 0.0
2018-Jun-15 05:00N 39°52' W 075°13'0 0.0
2018-Jun-15 04:30N 39°52' W 075°13'0 0.0
2018-Jun-15 04:00N 39°52' W 075°13'0 0.0
2018-Jun-15 03:30N 39°52' W 075°13'0 0.0
2018-Jun-15 03:00N 39°52' W 075°13'0 0.0
2018-Jun-15 02:30N 39°52' W 075°13'0 0.1
2018-Jun-15 02:00N 39°52' W 075°13'0 0.3
2018-Jun-15 01:30N 39°52' W 075°13'0 0.0
2018-Jun-15 01:00N 39°52' W 075°13'0 0.0
2018-Jun-15 00:30N 39°52' W 075°13'0 0.0
2018-Jun-15 00:00N 39°52' W 075°13'0 0.0
2018-Jun-14 23:30N 39°52' W 075°13'0 0.0
2018-Jun-14 23:00N 39°52' W 075°13'0 0.0
2018-Jun-14 22:30N 39°52' W 075°13'0 0.1
2018-Jun-14 22:00N 39°52' W 075°13'0 0.0
2018-Jun-14 21:30N 39°52' W 075°13'0 0.0
2018-Jun-14 21:00N 39°52' W 075°13'0 0.1
2018-Jun-14 20:30N 39°52' W 075°13'0 0.0
2018-Jun-14 20:00N 39°52' W 075°13'0 0.1
2018-Jun-14 19:30N 39°52' W 075°13'0 0.1
2018-Jun-14 19:00N 39°52' W 075°13'0 0.0
2018-Jun-14 18:30N 39°52' W 075°13'0 0.0
2018-Jun-14 18:00N 39°52' W 075°13'0 0.0
2018-Jun-14 17:30N 39°52' W 075°13'0 0.0
2018-Jun-14 17:00N 39°52' W 075°13'0 0.0
2018-Jun-14 16:30N 39°52' W 075°13'0 0.0
2018-Jun-14 16:00N 39°52' W 075°13'0 0.0
2018-Jun-14 15:30N 39°52' W 075°13'0 0.0
2018-Jun-14 15:00N 39°52' W 075°13'0 0.0
2018-Jun-14 14:30N 39°52' W 075°13'0 0.1
2018-Jun-14 14:00N 39°52' W 075°13'0 0.0
2018-Jun-14 13:30N 39°52' W 075°13'0 0.1
2018-Jun-14 13:00N 39°52' W 075°13'0 0.1
2018-Jun-14 12:30N 39°52' W 075°13'0 0.0
2018-Jun-14 12:00N 39°52' W 075°13'0 0.0
2018-Jun-14 11:30N 39°52' W 075°13'0 0.0
2018-Jun-14 11:00N 39°52' W 075°13'0 0.0
2018-Jun-14 10:30N 39°52' W 075°13'0 0.1
2018-Jun-14 10:00N 39°52' W 075°13'0 0.0
2018-Jun-14 09:30N 39°52' W 075°13'0 0.1
2018-Jun-14 09:00N 39°52' W 075°13'0 0.0
2018-Jun-14 08:30N 39°52' W 075°13'0 0.1
2018-Jun-14 08:00N 39°52' W 075°14'0 0.1
2018-Jun-14 07:30N 39°52' W 075°13'0 0.2
2018-Jun-14 07:00N 39°52' W 075°13'0 0.2
2018-Jun-14 06:30N 39°52' W 075°13'0 0.0
2018-Jun-14 06:00N 39°52' W 075°13'0 0.2
2018-Jun-14 05:31N 39°52' W 075°13'4 8.2
2018-Jun-14 05:00N 39°51' W 075°19'510.6
2018-Jun-14 04:30N 39°48' W 075°25'510.8
2018-Jun-14 04:01N 39°45' W 075°30'611.1
2018-Jun-14 03:30N 39°39' W 075°33'5 9.4
2018-Jun-14 03:00N 39°35' W 075°33'1 2.6
2018-Jun-14 02:30N 39°35' W 075°35'1 1.2
2018-Jun-14 01:59N 39°35' W 075°36'0 0.0
2018-Jun-14 01:30N 39°35' W 075°36'0 0.0
2018-Jun-14 00:59N 39°35' W 075°36'0 0.0
2018-Jun-14 00:29N 39°35' W 075°36'0 0.0
2018-Jun-14 00:00N 39°35' W 075°36'0 0.0
2018-Jun-13 23:29N 39°35' W 075°36'0 0.0
2018-Jun-13 23:00N 39°35' W 075°36'0 0.0
2018-Jun-13 22:29N 39°35' W 075°36'0 0.0
2018-Jun-13 21:59N 39°35' W 075°36'0 0.0
2018-Jun-13 21:29N 39°35' W 075°36'0 0.0
2018-Jun-13 21:00N 39°35' W 075°36'0 0.0
2018-Jun-13 20:29N 39°35' W 075°36'0 0.0
2018-Jun-13 19:59N 39°35' W 075°36'0 0.0
2018-Jun-13 19:29N 39°35' W 075°36'0 0.0
2018-Jun-13 19:00N 39°35' W 075°36'0 0.0
2018-Jun-13 18:29N 39°35' W 075°36'0 0.0
2018-Jun-13 17:59N 39°35' W 075°36'0 0.0
2018-Jun-13 17:29N 39°35' W 075°36'0 0.0
2018-Jun-13 17:00N 39°35' W 075°36'0 0.0
2018-Jun-13 16:30N 39°35' W 075°36'0 0.0
2018-Jun-13 16:00N 39°35' W 075°36'0 0.0
2018-Jun-13 15:29N 39°35' W 075°36'0 0.0
2018-Jun-13 14:59N 39°35' W 075°36'0 0.0
2018-Jun-13 14:29N 39°35' W 075°36'0 0.0
2018-Jun-13 13:59N 39°35' W 075°36'0 0.0
2018-Jun-13 13:29N 39°35' W 075°36'0 0.0
2018-Jun-13 13:00N 39°35' W 075°36'0 0.0
2018-Jun-13 12:29N 39°35' W 075°36'0 0.0
2018-Jun-13 11:59N 39°35' W 075°36'0 0.0
2018-Jun-13 11:29N 39°35' W 075°36'0 0.0
2018-Jun-13 10:59N 39°35' W 075°36'0 0.0
2018-Jun-13 10:29N 39°35' W 075°36'0 0.0
2018-Jun-13 09:59N 39°35' W 075°36'0 0.0
2018-Jun-13 09:29N 39°35' W 075°36'0 0.0
2018-Jun-13 08:59N 39°35' W 075°36'0 0.0
2018-Jun-13 08:29N 39°35' W 075°36'0 0.0
2018-Jun-13 07:59N 39°35' W 075°36'0 0.0
2018-Jun-13 07:29N 39°35' W 075°36'0 0.0
2018-Jun-13 06:59N 39°35' W 075°36'0 0.1
2018-Jun-13 06:30N 39°35' W 075°36'2 4.6
2018-Jun-13 06:00N 39°34' W 075°33'4 7.5
2018-Jun-13 05:30N 39°38' W 075°35'4 8.6
2018-Jun-13 05:00N 39°41' W 075°31'4 8.0
2018-Jun-13 04:30N 39°45' W 075°30'4 7.2
2018-Jun-13 04:00N 39°48' W 075°26'4 7.1
2018-Jun-13 03:30N 39°50' W 075°23'3 5.9
2018-Jun-13 03:00N 39°51' W 075°19'3 6.2
2018-Jun-13 02:30N 39°51' W 075°15'0 0.4
2018-Jun-13 02:00N 39°51' W 075°15'0 0.0
2018-Jun-13 01:28N 39°51' W 075°15'0 0.0
2018-Jun-13 00:58N 39°51' W 075°15'0 0.0
2018-Jun-13 00:28N 39°51' W 075°15'0 0.0
2018-Jun-12 23:58N 39°51' W 075°15'0 0.0
2018-Jun-12 23:28N 39°51' W 075°15'0 0.0
2018-Jun-12 22:58N 39°51' W 075°15'0 0.0
2018-Jun-12 22:28N 39°51' W 075°15'0 0.0
2018-Jun-12 21:58N 39°51' W 075°15'0 0.0
2018-Jun-12 21:28N 39°51' W 075°15'0 0.0
2018-Jun-12 20:58N 39°51' W 075°15'0 0.0
2018-Jun-12 20:31N 39°51' W 075°15'0 0.0
2018-Jun-12 19:58N 39°51' W 075°15'0 0.0
2018-Jun-12 19:27N 39°51' W 075°15'0 0.0
2018-Jun-12 18:58N 39°51' W 075°15'0 0.0
2018-Jun-12 18:25N 39°51' W 075°15'0 0.0
2018-Jun-12 17:58N 39°51' W 075°15'0 0.0
2018-Jun-12 17:25N 39°51' W 075°15'0 0.0
2018-Jun-12 17:01N 39°51' W 075°15'0 0.0
2018-Jun-12 16:31N 39°51' W 075°15'0 0.0
2018-Jun-12 15:58N 39°51' W 075°15'0 0.0
2018-Jun-12 15:28N 39°51' W 075°15'0 0.0
2018-Jun-12 15:01N 39°51' W 075°15'0 0.0
2018-Jun-12 14:30N 39°51' W 075°15'0 0.0
2018-Jun-12 13:57N 39°51' W 075°15'0 0.0
2018-Jun-12 13:28N 39°51' W 075°15'0 0.0
2018-Jun-12 12:58N 39°51' W 075°15'0 0.0
2018-Jun-12 12:27N 39°51' W 075°15'0 0.0
2018-Jun-12 12:01N 39°51' W 075°15'0 0.0
2018-Jun-12 11:30N 39°51' W 075°15'0 0.0
2018-Jun-12 11:01N 39°51' W 075°15'0 0.0
2018-Jun-12 10:27N 39°51' W 075°15'0 0.0
2018-Jun-12 09:57N 39°51' W 075°15'0 0.0
2018-Jun-12 09:28N 39°51' W 075°15'0 0.0
2018-Jun-12 08:55N 39°51' W 075°15'0 0.0
2018-Jun-12 08:27N 39°51' W 075°15'0 0.0
2018-Jun-12 08:00N 39°51' W 075°15'0 0.0
2018-Jun-12 07:25N 39°51' W 075°15'0 0.0
2018-Jun-12 06:58N 39°51' W 075°15'0 0.0
2018-Jun-12 06:28N 39°51' W 075°15'0 0.0
2018-Jun-12 05:55N 39°51' W 075°15'0 0.0
2018-Jun-12 05:27N 39°51' W 075°15'0 0.0
2018-Jun-12 04:58N 39°51' W 075°15'0 0.0
2018-Jun-12 04:27N 39°51' W 075°15'0 0.0
2018-Jun-12 04:00N 39°51' W 075°15'0 0.0
2018-Jun-12 03:28N 39°51' W 075°15'0 0.0
2018-Jun-12 02:57N 39°51' W 075°15'0 0.0
2018-Jun-12 02:28N 39°51' W 075°15'0 0.0
2018-Jun-12 02:00N 39°51' W 075°15'0 0.0
2018-Jun-12 01:30N 39°51' W 075°15'0 0.0
2018-Jun-12 01:00N 39°51' W 075°15'0 0.5
2018-Jun-12 00:30N 39°51' W 075°15'4 7.2
2018-Jun-12 00:00N 39°53' W 075°10'2 3.8
2018-Jun-11 23:30N 39°54' W 075°08'0 0.0
2018-Jun-11 23:01N 39°54' W 075°08'0 0.0
2018-Jun-11 22:28N 39°54' W 075°08'0 0.0
2018-Jun-11 21:58N 39°54' W 075°08'0 0.0
2018-Jun-11 21:28N 39°54' W 075°08'0 0.0
2018-Jun-11 20:58N 39°54' W 075°08'0 0.0
2018-Jun-11 20:28N 39°54' W 075°08'0 0.0
2018-Jun-11 19:58N 39°54' W 075°08'0 0.0
2018-Jun-11 19:28N 39°54' W 075°08'0 0.0
2018-Jun-11 18:58N 39°54' W 075°08'0 0.0
2018-Jun-11 18:28N 39°54' W 075°08'0 0.0
2018-Jun-11 17:58N 39°54' W 075°08'0 0.0
2018-Jun-11 17:28N 39°54' W 075°08'0 0.0
2018-Jun-11 16:58N 39°54' W 075°08'0 0.0
2018-Jun-11 16:28N 39°54' W 075°08'0 0.0
2018-Jun-11 15:58N 39°54' W 075°08'0 0.0
2018-Jun-11 15:28N 39°54' W 075°08'0 0.0
2018-Jun-11 14:58N 39°54' W 075°08'0 0.0
2018-Jun-11 14:28N 39°54' W 075°08'0 0.0
2018-Jun-11 13:58N 39°54' W 075°08'0 0.0
2018-Jun-11 13:28N 39°54' W 075°08'0 0.0
2018-Jun-11 12:58N 39°54' W 075°08'0 0.0
2018-Jun-11 12:28N 39°54' W 075°08'0 0.0
2018-Jun-11 11:59N 39°54' W 075°08'0 0.0
2018-Jun-11 11:30N 39°54' W 075°08'0 0.0
2018-Jun-11 10:58N 39°54' W 075°08'0 0.0
2018-Jun-11 10:28N 39°54' W 075°08'0 0.0
2018-Jun-11 09:58N 39°54' W 075°08'0 0.0
2018-Jun-11 09:28N 39°54' W 075°08'0 0.0
2018-Jun-11 08:58N 39°54' W 075°08'0 0.0
2018-Jun-11 08:28N 39°54' W 075°08'0 0.0
2018-Jun-11 07:58N 39°54' W 075°08'0 0.0
2018-Jun-11 07:28N 39°54' W 075°08'0 0.0
2018-Jun-11 06:58N 39°54' W 075°08'0 0.0
2018-Jun-11 06:28N 39°54' W 075°08'0 0.0
2018-Jun-11 05:58N 39°54' W 075°08'0 0.0
2018-Jun-11 05:28N 39°54' W 075°08'0 0.0
2018-Jun-11 04:58N 39°54' W 075°08'0 0.0
2018-Jun-11 04:25N 39°54' W 075°08'0 0.0
2018-Jun-11 03:58N 39°54' W 075°08'0 0.0
2018-Jun-11 03:28N 39°54' W 075°08'2 3.9
2018-Jun-11 03:00N 39°53' W 075°10'1 1.9
2018-Jun-11 02:27N 39°53' W 075°12'0 0.0
2018-Jun-11 01:55N 39°53' W 075°12'0 0.0
2018-Jun-11 00:59N 39°53' W 075°12'1 1.1
2018-Jun-11 00:28N 39°53' W 075°11'2 4.3
2018-Jun-10 23:58N 39°53' W 075°09'1 1.1
2018-Jun-10 23:25N 39°54' W 075°08'1 2.3
2018-Jun-10 23:00N 39°53' W 075°09'1 1.7
2018-Jun-10 22:27N 39°53' W 075°10'0 0.0
2018-Jun-10 20:51N 39°53' W 075°10'0 0.0
2018-Jun-10 20:20N 39°53' W 075°10'0 0.0
2018-Jun-10 19:50N 39°53' W 075°10'0 0.0
2018-Jun-10 19:12N 39°53' W 075°10'0 0.0
2018-Jun-10 17:20N 39°53' W 075°10'0 0.0
2018-Jun-10 16:51N 39°53' W 075°10'0 0.3
2018-Jun-10 16:30N 39°53' W 075°10'0 0.1
2018-Jun-10 15:28N 39°53' W 075°10'0 0.0
2018-Jun-10 14:56N 39°53' W 075°10'0 0.0
2018-Jun-10 14:28N 39°53' W 075°10'0 0.0
2018-Jun-10 11:39N 39°53' W 075°10'0 0.2
2018-Jun-10 11:26N 39°53' W 075°10'0 0.2
2018-Jun-10 10:59N 39°53' W 075°10'0 0.0
2018-Jun-10 10:26N 39°53' W 075°10'0 0.1
2018-Jun-10 09:50N 39°53' W 075°10'0 0.0
2018-Jun-10 09:16N 39°53' W 075°10'0 0.0
2018-Jun-10 08:45N 39°53' W 075°10'0 0.0
2018-Jun-10 06:26N 39°53' W 075°10'0 0.1
2018-Jun-10 04:18N 39°53' W 075°10'0 0.1
2018-Jun-10 03:56N 39°53' W 075°10'0 0.0
2018-Jun-10 03:10N 39°53' W 075°10'0 0.1
2018-Jun-10 02:49N 39°53' W 075°10'0 0.0
2018-Jun-10 01:28N 39°53' W 075°10'0 0.0
2018-Jun-10 00:54N 39°53' W 075°10'0 0.0
2018-Jun-10 00:25N 39°53' W 075°10'0 0.0
2018-Jun-09 19:19N 39°53' W 075°10'0 0.0
2018-Jun-09 18:27N 39°53' W 075°10'0 0.0
2018-Jun-09 17:31N 39°53' W 075°10'0 0.1
2018-Jun-09 17:26N 39°53' W 075°10'0 0.0
2018-Jun-09 16:50N 39°53' W 075°10'0 0.0
2018-Jun-09 16:26N 39°53' W 075°10'0 0.1
2018-Jun-09 16:01N 39°53' W 075°10'0 0.2
2018-Jun-09 14:58N 39°53' W 075°10'0 0.0
2018-Jun-09 14:24N 39°53' W 075°10'0 0.0
2018-Jun-09 13:10N 39°53' W 075°10'0 0.0
2018-Jun-09 12:43N 39°53' W 075°10'0 0.0
2018-Jun-09 12:27N 39°53' W 075°10'0 0.0
2018-Jun-09 11:44N 39°53' W 075°10'0 0.0
2018-Jun-09 11:29N 39°53' W 075°10'0 0.0
2018-Jun-09 10:22N 39°53' W 075°10'0 0.2
2018-Jun-09 09:16N 39°53' W 075°10'0 0.0
2018-Jun-09 08:48N 39°53' W 075°10'0 0.0
2018-Jun-09 08:27N 39°53' W 075°10'0 0.0
2018-Jun-09 07:52N 39°53' W 075°10'0 0.0
2018-Jun-09 07:24N 39°53' W 075°10'0 0.0
2018-Jun-09 07:00N 39°53' W 075°10'0 0.0
2018-Jun-09 06:30N 39°53' W 075°10'0 0.0
2018-Jun-09 05:59N 39°53' W 075°10'0 0.0
2018-Jun-09 05:29N 39°53' W 075°10'0 0.0
2018-Jun-09 04:59N 39°53' W 075°10'0 0.0
2018-Jun-09 04:29N 39°53' W 075°10'0 0.0
2018-Jun-09 03:59N 39°53' W 075°10'0 0.0
2018-Jun-09 03:29N 39°53' W 075°10'0 0.1
2018-Jun-09 02:59N 39°53' W 075°10'0 0.2
2018-Jun-09 02:29N 39°53' W 075°10'0 0.1
2018-Jun-09 01:59N 39°53' W 075°10'0 0.0
2018-Jun-09 01:29N 39°53' W 075°10'0 0.0
2018-Jun-09 00:59N 39°53' W 075°10'0 0.0
2018-Jun-09 00:29N 39°53' W 075°10'0 0.0
2018-Jun-08 23:59N 39°53' W 075°10'0 0.1
2018-Jun-08 23:30N 39°53' W 075°10'2 3.5
2018-Jun-08 23:00N 39°53' W 075°12'4 7.7
2018-Jun-08 22:30N 39°51' W 075°17'5 9.0
2018-Jun-08 22:00N 39°50' W 075°22'510.7
2018-Jun-08 21:30N 39°47' W 075°28'510.5
2018-Jun-08 21:00N 39°42' W 075°31'510.2
2018-Jun-08 20:29N 39°37' W 075°35'4 7.9
2018-Jun-08 20:00N 39°34' W 075°34'4 8.5
2018-Jun-08 19:30N 39°33' W 075°40'5 9.3
2018-Jun-08 19:00N 39°32' W 075°46'5 9.7
2018-Jun-08 18:30N 39°32' W 075°52'510.5
2018-Jun-08 18:00N 39°29' W 075°57'510.1
2018-Jun-08 17:30N 39°25' W 076°02'5 9.4
2018-Jun-08 17:00N 39°23' W 076°07'5 9.3
2018-Jun-08 16:30N 39°20' W 076°12'9 8.7
2018-Jun-08 15:29N 39°12' W 076°16'4 8.4
2018-Jun-08 15:00N 39°09' W 076°20'4 9.1
2018-Jun-08 14:30N 39°10' W 076°25'5 9.1
2018-Jun-08 14:00N 39°12' W 076°31'3 6.1
2018-Jun-08 13:30N 39°13' W 076°34'1 1.3
2018-Jun-08 13:00N 39°13' W 076°35'0 0.0
2018-Jun-08 12:25N 39°13' W 076°35'0 0.0
2018-Jun-08 11:49N 39°13' W 076°35'0 0.0
2018-Jun-08 11:25N 39°13' W 076°35'0 0.0
2018-Jun-08 10:55N 39°13' W 076°35'0 0.0
2018-Jun-08 10:28N 39°13' W 076°35'0 0.0
2018-Jun-08 09:58N 39°13' W 076°35'0 0.0
2018-Jun-08 09:25N 39°13' W 076°35'0 0.0
2018-Jun-08 08:55N 39°13' W 076°35'0 0.0
2018-Jun-08 08:28N 39°13' W 076°35'0 0.0
2018-Jun-08 07:58N 39°13' W 076°35'0 0.0
2018-Jun-08 07:28N 39°13' W 076°35'0 0.0
2018-Jun-08 06:55N 39°13' W 076°35'0 0.0
2018-Jun-08 06:28N 39°13' W 076°35'0 0.0
2018-Jun-08 05:58N 39°13' W 076°35'0 0.0
2018-Jun-08 05:28N 39°13' W 076°35'0 0.0
2018-Jun-08 04:58N 39°13' W 076°35'0 0.0
2018-Jun-08 04:28N 39°13' W 076°35'0 0.0
2018-Jun-08 03:58N 39°13' W 076°35'0 0.0
2018-Jun-08 03:28N 39°13' W 076°35'  
Track history (hours):
 
Tides and Currents Weather Stations Pressure Air Temp Water Temp Dewpoint Dewpoint Depression Visibility Wind Speed Wind Dir Waves Ship Positions

Genesis Valiant

Owner: Genesis Marine, LLC, Houston, TX. More information available from US FCC via Universal Licensing System and Coast Guard Vessel Documentation Center.

Last reported at 2018-Jun-18 03:28 UTC. Time now 2018-Jun-18 03:47 UTC.
Position N 39°52' W 075°14'.

Length 30 m; draft 5.8 m.

Type: Towing. MMSI: 338495000.

Date/timePositionNaut miles runAvg speedWind from/ knotsBaromVisibWave heightAir tempDewpointWater temp
2018-Jun-18 03:28N 39°52' W 075°14'0 0.0
2018-Jun-18 02:58N 39°52' W 075°14'0 0.0
2018-Jun-18 02:28N 39°52' W 075°14'0 0.0
2018-Jun-18 01:58N 39°52' W 075°14'0 0.0
2018-Jun-18 01:28N 39°52' W 075°14'0 0.0
2018-Jun-18 00:58N 39°52' W 075°14'0 0.0
2018-Jun-18 00:28N 39°52' W 075°14'0 0.1
2018-Jun-17 23:58N 39°52' W 075°14'0 0.2
2018-Jun-17 23:28N 39°51' W 075°14'0 0.3
2018-Jun-17 22:58N 39°52' W 075°13'1 2.4
2018-Jun-17 22:30N 39°52' W 075°12'3 7.0
2018-Jun-17 22:00N 39°54' W 075°08'0 0.2
2018-Jun-17 21:29N 39°54' W 075°08'0 0.0
2018-Jun-17 20:59N 39°54' W 075°08'0 0.0
2018-Jun-17 20:26N 39°54' W 075°08'0 0.0
2018-Jun-17 19:59N 39°54' W 075°08'0 0.0
2018-Jun-17 19:29N 39°54' W 075°08'0 0.0
2018-Jun-17 18:55N 39°54' W 075°08'0 0.0
2018-Jun-17 18:30N 39°54' W 075°08'0 0.0
2018-Jun-17 18:00N 39°54' W 075°08'0 0.0
2018-Jun-17 17:30N 39°54' W 075°08'0 0.0
2018-Jun-17 17:01N 39°54' W 075°08'0 0.0
2018-Jun-17 16:31N 39°54' W 075°08'0 0.0
2018-Jun-17 16:00N 39°54' W 075°08'0 0.0
2018-Jun-17 15:30N 39°54' W 075°08'0 0.0
2018-Jun-17 15:00N 39°54' W 075°08'0 0.0
2018-Jun-17 14:30N 39°54' W 075°08'0 0.0
2018-Jun-17 14:00N 39°54' W 075°08'0 0.0
2018-Jun-17 13:30N 39°54' W 075°08'0 0.0
2018-Jun-17 13:00N 39°54' W 075°08'0 0.0
2018-Jun-17 12:30N 39°54' W 075°08'0 0.0
2018-Jun-17 12:00N 39°54' W 075°08'0 0.0
2018-Jun-17 11:30N 39°54' W 075°08'0 0.0
2018-Jun-17 11:00N 39°54' W 075°08'0 0.0
2018-Jun-17 10:30N 39°54' W 075°08'0 0.0
2018-Jun-17 10:00N 39°54' W 075°08'0 0.0
2018-Jun-17 09:30N 39°54' W 075°08'2 3.0
2018-Jun-17 09:00N 39°53' W 075°10'3 5.6
2018-Jun-17 08:30N 39°52' W 075°13'0 0.0
2018-Jun-17 08:00N 39°52' W 075°13'0 0.0
2018-Jun-17 07:30N 39°52' W 075°13'0 0.0
2018-Jun-17 06:57N 39°52' W 075°13'0 0.0
2018-Jun-17 06:30N 39°52' W 075°13'0 0.0
2018-Jun-17 06:00N 39°52' W 075°13'0 0.0
2018-Jun-17 05:30N 39°52' W 075°13'0 0.0
2018-Jun-17 05:00N 39°52' W 075°13'0 0.0
2018-Jun-17 04:30N 39°52' W 075°13'0 0.2
2018-Jun-17 03:57N 39°52' W 075°13'0 0.2
2018-Jun-17 03:30N 39°52' W 075°14'0 0.0
2018-Jun-17 03:00N 39°52' W 075°14'0 0.1
2018-Jun-17 02:30N 39°52' W 075°14'0 0.0
2018-Jun-17 02:00N 39°52' W 075°14'0 0.0
2018-Jun-17 01:30N 39°52' W 075°14'0 0.1
2018-Jun-17 01:00N 39°52' W 075°14'0 0.0
2018-Jun-17 00:30N 39°52' W 075°14'0 0.0
2018-Jun-17 00:00N 39°52' W 075°14'0 0.0
2018-Jun-16 23:30N 39°52' W 075°14'0 0.0
2018-Jun-16 23:00N 39°52' W 075°14'0 0.0
2018-Jun-16 22:30N 39°52' W 075°14'0 0.3
2018-Jun-16 22:00N 39°52' W 075°13'0 0.1
2018-Jun-16 21:30N 39°52' W 075°13'0 0.0
2018-Jun-16 21:00N 39°52' W 075°13'0 0.0
2018-Jun-16 20:30N 39°52' W 075°13'0 0.0
2018-Jun-16 20:00N 39°52' W 075°13'0 0.0
2018-Jun-16 19:30N 39°52' W 075°13'0 0.0
2018-Jun-16 19:00N 39°52' W 075°13'0 0.0
2018-Jun-16 18:30N 39°52' W 075°13'0 0.0
2018-Jun-16 18:00N 39°52' W 075°13'0 0.0
2018-Jun-16 17:30N 39°52' W 075°13'0 0.0
2018-Jun-16 17:00N 39°52' W 075°13'0 0.0
2018-Jun-16 16:30N 39°52' W 075°13'0 0.3
2018-Jun-16 16:00N 39°52' W 075°13'0 0.1
2018-Jun-16 15:30N 39°52' W 075°14'0 0.0
2018-Jun-16 15:00N 39°52' W 075°14'0 0.0
2018-Jun-16 14:30N 39°52' W 075°14'0 0.0
2018-Jun-16 14:00N 39°52' W 075°14'0 0.0
2018-Jun-16 13:30N 39°52' W 075°14'0 0.0
2018-Jun-16 13:00N 39°52' W 075°14'0 0.0
2018-Jun-16 12:30N 39°52' W 075°14'0 0.0
2018-Jun-16 12:00N 39°52' W 075°14'0 0.0
2018-Jun-16 11:30N 39°52' W 075°14'0 0.0
2018-Jun-16 11:00N 39°52' W 075°14'0 0.0
2018-Jun-16 10:30N 39°52' W 075°14'0 0.0
2018-Jun-16 10:00N 39°52' W 075°14'0 0.0
2018-Jun-16 09:30N 39°52' W 075°14'0 0.2
2018-Jun-16 09:00N 39°52' W 075°13'0 0.1
2018-Jun-16 08:30N 39°52' W 075°13'0 0.0
2018-Jun-16 08:00N 39°52' W 075°13'0 0.0
2018-Jun-16 07:30N 39°52' W 075°13'0 0.0
2018-Jun-16 07:00N 39°52' W 075°13'0 0.0
2018-Jun-16 06:30N 39°52' W 075°13'0 0.0
2018-Jun-16 06:00N 39°52' W 075°13'0 0.0
2018-Jun-16 05:30N 39°52' W 075°13'0 0.0
2018-Jun-16 05:00N 39°52' W 075°13'0 0.0
2018-Jun-16 04:30N 39°52' W 075°13'0 0.0
2018-Jun-16 04:00N 39°52' W 075°13'0 0.0
2018-Jun-16 03:30N 39°52' W 075°13'0 0.2
2018-Jun-16 03:00N 39°52' W 075°13'0 0.2
2018-Jun-16 02:30N 39°52' W 075°14'0 0.1
2018-Jun-16 02:00N 39°52' W 075°13'0 0.1
2018-Jun-16 01:30N 39°52' W 075°14'0 0.0
2018-Jun-16 01:00N 39°52' W 075°13'0 0.0
2018-Jun-16 00:30N 39°52' W 075°13'0 0.0
2018-Jun-16 00:00N 39°52' W 075°13'0 0.0
2018-Jun-15 23:30N 39°52' W 075°13'0 0.1
2018-Jun-15 22:57N 39°52' W 075°13'0 0.1
2018-Jun-15 22:30N 39°52' W 075°13'0 0.0
2018-Jun-15 22:00N 39°52' W 075°13'0 0.0
2018-Jun-15 21:30N 39°52' W 075°13'0 0.1
2018-Jun-15 21:00N 39°52' W 075°13'0 0.1
2018-Jun-15 20:30N 39°52' W 075°13'0 0.1
2018-Jun-15 19:48N 39°52' W 075°13'0 0.1
2018-Jun-15 19:30N 39°52' W 075°13'0 0.1
2018-Jun-15 19:00N 39°52' W 075°13'0 0.0
2018-Jun-15 18:30N 39°52' W 075°13'0 0.0
2018-Jun-15 18:00N 39°52' W 075°13'0 0.0
2018-Jun-15 17:30N 39°52' W 075°13'0 0.1
2018-Jun-15 17:00N 39°52' W 075°13'0 0.0
2018-Jun-15 16:30N 39°52' W 075°13'0 0.0
2018-Jun-15 16:00N 39°52' W 075°13'0 0.1
2018-Jun-15 15:30N 39°52' W 075°13'0 0.1
2018-Jun-15 15:00N 39°52' W 075°13'0 0.2
2018-Jun-15 14:30N 39°52' W 075°13'0 0.1
2018-Jun-15 14:00N 39°52' W 075°13'0 0.0
2018-Jun-15 13:30N 39°52' W 075°13'0 0.1
2018-Jun-15 13:00N 39°52' W 075°13'0 0.0
2018-Jun-15 12:30N 39°52' W 075°14'0 0.0
2018-Jun-15 12:00N 39°52' W 075°13'0 0.0
2018-Jun-15 11:30N 39°52' W 075°14'0 0.0
2018-Jun-15 11:00N 39°52' W 075°13'0 0.0
2018-Jun-15 10:30N 39°52' W 075°14'0 0.0
2018-Jun-15 10:00N 39°52' W 075°14'0 0.0
2018-Jun-15 09:30N 39°52' W 075°13'0 0.0
2018-Jun-15 09:00N 39°52' W 075°13'0 0.1
2018-Jun-15 08:30N 39°52' W 075°13'0 0.1
2018-Jun-15 07:57N 39°52' W 075°13'0 0.1
2018-Jun-15 07:30N 39°52' W 075°13'0 0.0
2018-Jun-15 07:00N 39°52' W 075°13'0 0.0
2018-Jun-15 06:30N 39°52' W 075°13'0 0.0
2018-Jun-15 06:00N 39°52' W 075°13'0 0.0
2018-Jun-15 05:30N 39°52' W 075°13'0 0.0
2018-Jun-15 05:00N 39°52' W 075°13'0 0.0
2018-Jun-15 04:30N 39°52' W 075°13'0 0.0
2018-Jun-15 04:00N 39°52' W 075°13'0 0.0
2018-Jun-15 03:30N 39°52' W 075°13'0 0.0
2018-Jun-15 03:00N 39°52' W 075°13'0 0.0
2018-Jun-15 02:30N 39°52' W 075°13'0 0.1
2018-Jun-15 02:00N 39°52' W 075°13'0 0.3
2018-Jun-15 01:30N 39°52' W 075°13'0 0.0
2018-Jun-15 01:00N 39°52' W 075°13'0 0.0
2018-Jun-15 00:30N 39°52' W 075°13'0 0.0
2018-Jun-15 00:00N 39°52' W 075°13'0 0.0
2018-Jun-14 23:30N 39°52' W 075°13'0 0.0
2018-Jun-14 23:00N 39°52' W 075°13'0 0.0
2018-Jun-14 22:30N 39°52' W 075°13'0 0.1
2018-Jun-14 22:00N 39°52' W 075°13'0 0.0
2018-Jun-14 21:30N 39°52' W 075°13'0 0.0
2018-Jun-14 21:00N 39°52' W 075°13'0 0.1
2018-Jun-14 20:30N 39°52' W 075°13'0 0.0
2018-Jun-14 20:00N 39°52' W 075°13'0 0.1
2018-Jun-14 19:30N 39°52' W 075°13'0 0.1
2018-Jun-14 19:00N 39°52' W 075°13'0 0.0
2018-Jun-14 18:30N 39°52' W 075°13'0 0.0
2018-Jun-14 18:00N 39°52' W 075°13'0 0.0
2018-Jun-14 17:30N 39°52' W 075°13'0 0.0
2018-Jun-14 17:00N 39°52' W 075°13'0 0.0
2018-Jun-14 16:30N 39°52' W 075°13'0 0.0
2018-Jun-14 16:00N 39°52' W 075°13'0 0.0
2018-Jun-14 15:30N 39°52' W 075°13'0 0.0
2018-Jun-14 15:00N 39°52' W 075°13'0 0.0
2018-Jun-14 14:30N 39°52' W 075°13'0 0.1
2018-Jun-14 14:00N 39°52' W 075°13'0 0.0
2018-Jun-14 13:30N 39°52' W 075°13'0 0.1
2018-Jun-14 13:00N 39°52' W 075°13'0 0.1
2018-Jun-14 12:30N 39°52' W 075°13'0 0.0
2018-Jun-14 12:00N 39°52' W 075°13'0 0.0
2018-Jun-14 11:30N 39°52' W 075°13'0 0.0
2018-Jun-14 11:00N 39°52' W 075°13'0 0.0
2018-Jun-14 10:30N 39°52' W 075°13'0 0.1
2018-Jun-14 10:00N 39°52' W 075°13'0 0.0
2018-Jun-14 09:30N 39°52' W 075°13'0 0.1
2018-Jun-14 09:00N 39°52' W 075°13'0 0.0
2018-Jun-14 08:30N 39°52' W 075°13'0 0.1
2018-Jun-14 08:00N 39°52' W 075°14'0 0.1
2018-Jun-14 07:30N 39°52' W 075°13'0 0.2
2018-Jun-14 07:00N 39°52' W 075°13'0 0.2
2018-Jun-14 06:30N 39°52' W 075°13'0 0.0
2018-Jun-14 06:00N 39°52' W 075°13'0 0.2
2018-Jun-14 05:31N 39°52' W 075°13'4 8.2
2018-Jun-14 05:00N 39°51' W 075°19'510.6
2018-Jun-14 04:30N 39°48' W 075°25'510.8
2018-Jun-14 04:01N 39°45' W 075°30'611.1
2018-Jun-14 03:30N 39°39' W 075°33'5 9.4
2018-Jun-14 03:00N 39°35' W 075°33'1 2.6
2018-Jun-14 02:30N 39°35' W 075°35'1 1.2
2018-Jun-14 01:59N 39°35' W 075°36'0 0.0
2018-Jun-14 01:30N 39°35' W 075°36'0 0.0
2018-Jun-14 00:59N 39°35' W 075°36'0 0.0
2018-Jun-14 00:29N 39°35' W 075°36'0 0.0
2018-Jun-14 00:00N 39°35' W 075°36'0 0.0
2018-Jun-13 23:29N 39°35' W 075°36'0 0.0
2018-Jun-13 23:00N 39°35' W 075°36'0 0.0
2018-Jun-13 22:29N 39°35' W 075°36'0 0.0
2018-Jun-13 21:59N 39°35' W 075°36'0 0.0
2018-Jun-13 21:29N 39°35' W 075°36'0 0.0
2018-Jun-13 21:00N 39°35' W 075°36'0 0.0
2018-Jun-13 20:29N 39°35' W 075°36'0 0.0
2018-Jun-13 19:59N 39°35' W 075°36'0 0.0
2018-Jun-13 19:29N 39°35' W 075°36'0 0.0
2018-Jun-13 19:00N 39°35' W 075°36'0 0.0
2018-Jun-13 18:29N 39°35' W 075°36'0 0.0
2018-Jun-13 17:59N 39°35' W 075°36'0 0.0
2018-Jun-13 17:29N 39°35' W 075°36'0 0.0
2018-Jun-13 17:00N 39°35' W 075°36'0 0.0
2018-Jun-13 16:30N 39°35' W 075°36'0 0.0
2018-Jun-13 16:00N 39°35' W 075°36'0 0.0
2018-Jun-13 15:29N 39°35' W 075°36'0 0.0
2018-Jun-13 14:59N 39°35' W 075°36'0 0.0
2018-Jun-13 14:29N 39°35' W 075°36'0 0.0
2018-Jun-13 13:59N 39°35' W 075°36'0 0.0
2018-Jun-13 13:29N 39°35' W 075°36'0 0.0
2018-Jun-13 13:00N 39°35' W 075°36'0 0.0
2018-Jun-13 12:29N 39°35' W 075°36'0 0.0
2018-Jun-13 11:59N 39°35' W 075°36'0 0.0
2018-Jun-13 11:29N 39°35' W 075°36'0 0.0
2018-Jun-13 10:59N 39°35' W 075°36'0 0.0
2018-Jun-13 10:29N 39°35' W 075°36'0 0.0
2018-Jun-13 09:59N 39°35' W 075°36'0 0.0
2018-Jun-13 09:29N 39°35' W 075°36'0 0.0
2018-Jun-13 08:59N 39°35' W 075°36'0 0.0
2018-Jun-13 08:29N 39°35' W 075°36'0 0.0
2018-Jun-13 07:59N 39°35' W 075°36'0 0.0
2018-Jun-13 07:29N 39°35' W 075°36'0 0.0
2018-Jun-13 06:59N 39°35' W 075°36'0 0.1
2018-Jun-13 06:30N 39°35' W 075°36'2 4.6
2018-Jun-13 06:00N 39°34' W 075°33'4 7.5
2018-Jun-13 05:30N 39°38' W 075°35'4 8.6
2018-Jun-13 05:00N 39°41' W 075°31'4 8.0
2018-Jun-13 04:30N 39°45' W 075°30'4 7.2
2018-Jun-13 04:00N 39°48' W 075°26'4 7.1
2018-Jun-13 03:30N 39°50' W 075°23'3 5.9
2018-Jun-13 03:00N 39°51' W 075°19'3 6.2
2018-Jun-13 02:30N 39°51' W 075°15'0 0.4
2018-Jun-13 02:00N 39°51' W 075°15'0 0.0
2018-Jun-13 01:28N 39°51' W 075°15'0 0.0
2018-Jun-13 00:58N 39°51' W 075°15'0 0.0
2018-Jun-13 00:28N 39°51' W 075°15'0 0.0
2018-Jun-12 23:58N 39°51' W 075°15'0 0.0
2018-Jun-12 23:28N 39°51' W 075°15'0 0.0
2018-Jun-12 22:58N 39°51' W 075°15'0 0.0
2018-Jun-12 22:28N 39°51' W 075°15'0 0.0
2018-Jun-12 21:58N 39°51' W 075°15'0 0.0
2018-Jun-12 21:28N 39°51' W 075°15'0 0.0
2018-Jun-12 20:58N 39°51' W 075°15'0 0.0
2018-Jun-12 20:31N 39°51' W 075°15'0 0.0
2018-Jun-12 19:58N 39°51' W 075°15'0 0.0
2018-Jun-12 19:27N 39°51' W 075°15'0 0.0
2018-Jun-12 18:58N 39°51' W 075°15'0 0.0
2018-Jun-12 18:25N 39°51' W 075°15'0 0.0
2018-Jun-12 17:58N 39°51' W 075°15'0 0.0
2018-Jun-12 17:25N 39°51' W 075°15'0 0.0
2018-Jun-12 17:01N 39°51' W 075°15'0 0.0
2018-Jun-12 16:31N 39°51' W 075°15'0 0.0
2018-Jun-12 15:58N 39°51' W 075°15'0 0.0
2018-Jun-12 15:28N 39°51' W 075°15'0 0.0
2018-Jun-12 15:01N 39°51' W 075°15'0 0.0
2018-Jun-12 14:30N 39°51' W 075°15'0 0.0
2018-Jun-12 13:57N 39°51' W 075°15'0 0.0
2018-Jun-12 13:28N 39°51' W 075°15'0 0.0
2018-Jun-12 12:58N 39°51' W 075°15'0 0.0
2018-Jun-12 12:27N 39°51' W 075°15'0 0.0
2018-Jun-12 12:01N 39°51' W 075°15'0 0.0
2018-Jun-12 11:30N 39°51' W 075°15'0 0.0
2018-Jun-12 11:01N 39°51' W 075°15'0 0.0
2018-Jun-12 10:27N 39°51' W 075°15'0 0.0
2018-Jun-12 09:57N 39°51' W 075°15'0 0.0
2018-Jun-12 09:28N 39°51' W 075°15'0 0.0
2018-Jun-12 08:55N 39°51' W 075°15'0 0.0
2018-Jun-12 08:27N 39°51' W 075°15'0 0.0
2018-Jun-12 08:00N 39°51' W 075°15'0 0.0
2018-Jun-12 07:25N 39°51' W 075°15'0 0.0
2018-Jun-12 06:58N 39°51' W 075°15'0 0.0
2018-Jun-12 06:28N 39°51' W 075°15'0 0.0
2018-Jun-12 05:55N 39°51' W 075°15'0 0.0
2018-Jun-12 05:27N 39°51' W 075°15'0 0.0
2018-Jun-12 04:58N 39°51' W 075°15'0 0.0
2018-Jun-12 04:27N 39°51' W 075°15'0 0.0
2018-Jun-12 04:00N 39°51' W 075°15'0 0.0
2018-Jun-12 03:28N 39°51' W 075°15'0 0.0
2018-Jun-12 02:57N 39°51' W 075°15'0 0.0
2018-Jun-12 02:28N 39°51' W 075°15'0 0.0
2018-Jun-12 02:00N 39°51' W 075°15'0 0.0
2018-Jun-12 01:30N 39°51' W 075°15'0 0.0
2018-Jun-12 01:00N 39°51' W 075°15'0 0.5
2018-Jun-12 00:30N 39°51' W 075°15'4 7.2
2018-Jun-12 00:00N 39°53' W 075°10'2 3.8
2018-Jun-11 23:30N 39°54' W 075°08'0 0.0
2018-Jun-11 23:01N 39°54' W 075°08'0 0.0
2018-Jun-11 22:28N 39°54' W 075°08'0 0.0
2018-Jun-11 21:58N 39°54' W 075°08'0 0.0
2018-Jun-11 21:28N 39°54' W 075°08'0 0.0
2018-Jun-11 20:58N 39°54' W 075°08'0 0.0
2018-Jun-11 20:28N 39°54' W 075°08'0 0.0
2018-Jun-11 19:58N 39°54' W 075°08'0 0.0
2018-Jun-11 19:28N 39°54' W 075°08'0 0.0
2018-Jun-11 18:58N 39°54' W 075°08'0 0.0
2018-Jun-11 18:28N 39°54' W 075°08'0 0.0
2018-Jun-11 17:58N 39°54' W 075°08'0 0.0
2018-Jun-11 17:28N 39°54' W 075°08'0 0.0
2018-Jun-11 16:58N 39°54' W 075°08'0 0.0
2018-Jun-11 16:28N 39°54' W 075°08'0 0.0
2018-Jun-11 15:58N 39°54' W 075°08'0 0.0
2018-Jun-11 15:28N 39°54' W 075°08'0 0.0
2018-Jun-11 14:58N 39°54' W 075°08'0 0.0
2018-Jun-11 14:28N 39°54' W 075°08'0 0.0
2018-Jun-11 13:58N 39°54' W 075°08'0 0.0
2018-Jun-11 13:28N 39°54' W 075°08'0 0.0
2018-Jun-11 12:58N 39°54' W 075°08'0 0.0
2018-Jun-11 12:28N 39°54' W 075°08'0 0.0
2018-Jun-11 11:59N 39°54' W 075°08'0 0.0
2018-Jun-11 11:30N 39°54' W 075°08'0 0.0
2018-Jun-11 10:58N 39°54' W 075°08'0 0.0
2018-Jun-11 10:28N 39°54' W 075°08'0 0.0
2018-Jun-11 09:58N 39°54' W 075°08'0 0.0
2018-Jun-11 09:28N 39°54' W 075°08'0 0.0
2018-Jun-11 08:58N 39°54' W 075°08'0 0.0
2018-Jun-11 08:28N 39°54' W 075°08'0 0.0
2018-Jun-11 07:58N 39°54' W 075°08'0 0.0
2018-Jun-11 07:28N 39°54' W 075°08'0 0.0
2018-Jun-11 06:58N 39°54' W 075°08'0 0.0
2018-Jun-11 06:28N 39°54' W 075°08'0 0.0
2018-Jun-11 05:58N 39°54' W 075°08'0 0.0
2018-Jun-11 05:28N 39°54' W 075°08'0 0.0
2018-Jun-11 04:58N 39°54' W 075°08'0 0.0
2018-Jun-11 04:25N 39°54' W 075°08'0 0.0
2018-Jun-11 03:58N 39°54' W 075°08'0 0.0
2018-Jun-11 03:28N 39°54' W 075°08'2 3.9
2018-Jun-11 03:00N 39°53' W 075°10'1 1.9
2018-Jun-11 02:27N 39°53' W 075°12'0 0.0
2018-Jun-11 01:55N 39°53' W 075°12'0 0.0
2018-Jun-11 00:59N 39°53' W 075°12'1 1.1
2018-Jun-11 00:28N 39°53' W 075°11'2 4.3
2018-Jun-10 23:58N 39°53' W 075°09'1 1.1
2018-Jun-10 23:25N 39°54' W 075°08'1 2.3
2018-Jun-10 23:00N 39°53' W 075°09'1 1.7
2018-Jun-10 22:27N 39°53' W 075°10'0 0.0
2018-Jun-10 20:51N 39°53' W 075°10'0 0.0
2018-Jun-10 20:20N 39°53' W 075°10'0 0.0
2018-Jun-10 19:50N 39°53' W 075°10'0 0.0
2018-Jun-10 19:12N 39°53' W 075°10'0 0.0
2018-Jun-10 17:20N 39°53' W 075°10'0 0.0
2018-Jun-10 16:51N 39°53' W 075°10'0 0.3
2018-Jun-10 16:30N 39°53' W 075°10'0 0.1
2018-Jun-10 15:28N 39°53' W 075°10'0 0.0
2018-Jun-10 14:56N 39°53' W 075°10'0 0.0
2018-Jun-10 14:28N 39°53' W 075°10'0 0.0
2018-Jun-10 11:39N 39°53' W 075°10'0 0.2
2018-Jun-10 11:26N 39°53' W 075°10'0 0.2
2018-Jun-10 10:59N 39°53' W 075°10'0 0.0
2018-Jun-10 10:26N 39°53' W 075°10'0 0.1
2018-Jun-10 09:50N 39°53' W 075°10'0 0.0
2018-Jun-10 09:16N 39°53' W 075°10'0 0.0
2018-Jun-10 08:45N 39°53' W 075°10'0 0.0
2018-Jun-10 06:26N 39°53' W 075°10'0 0.1
2018-Jun-10 04:18N 39°53' W 075°10'0 0.1
2018-Jun-10 03:56N 39°53' W 075°10'0 0.0
2018-Jun-10 03:10N 39°53' W 075°10'0 0.1
2018-Jun-10 02:49N 39°53' W 075°10'0 0.0
2018-Jun-10 01:28N 39°53' W 075°10'0 0.0
2018-Jun-10 00:54N 39°53' W 075°10'0 0.0
2018-Jun-10 00:25N 39°53' W 075°10'0 0.0
2018-Jun-09 19:19N 39°53' W 075°10'0 0.0
2018-Jun-09 18:27N 39°53' W 075°10'0 0.0
2018-Jun-09 17:31N 39°53' W 075°10'0 0.1
2018-Jun-09 17:26N 39°53' W 075°10'0 0.0
2018-Jun-09 16:50N 39°53' W 075°10'0 0.0
2018-Jun-09 16:26N 39°53' W 075°10'0 0.1
2018-Jun-09 16:01N 39°53' W 075°10'0 0.2
2018-Jun-09 14:58N 39°53' W 075°10'0 0.0
2018-Jun-09 14:24N 39°53' W 075°10'0 0.0
2018-Jun-09 13:10N 39°53' W 075°10'0 0.0
2018-Jun-09 12:43N 39°53' W 075°10'0 0.0
2018-Jun-09 12:27N 39°53' W 075°10'0 0.0
2018-Jun-09 11:44N 39°53' W 075°10'0 0.0
2018-Jun-09 11:29N 39°53' W 075°10'0 0.0
2018-Jun-09 10:22N 39°53' W 075°10'0 0.2
2018-Jun-09 09:16N 39°53' W 075°10'0 0.0
2018-Jun-09 08:48N 39°53' W 075°10'0 0.0
2018-Jun-09 08:27N 39°53' W 075°10'0 0.0
2018-Jun-09 07:52N 39°53' W 075°10'0 0.0
2018-Jun-09 07:24N 39°53' W 075°10'0 0.0
2018-Jun-09 07:00N 39°53' W 075°10'0 0.0
2018-Jun-09 06:30N 39°53' W 075°10'0 0.0
2018-Jun-09 05:59N 39°53' W 075°10'0 0.0
2018-Jun-09 05:29N 39°53' W 075°10'0 0.0
2018-Jun-09 04:59N 39°53' W 075°10'0 0.0
2018-Jun-09 04:29N 39°53' W 075°10'0 0.0
2018-Jun-09 03:59N 39°53' W 075°10'0 0.0
2018-Jun-09 03:29N 39°53' W 075°10'0 0.1
2018-Jun-09 02:59N 39°53' W 075°10'0 0.2
2018-Jun-09 02:29N 39°53' W 075°10'0 0.1
2018-Jun-09 01:59N 39°53' W 075°10'0 0.0
2018-Jun-09 01:29N 39°53' W 075°10'0 0.0
2018-Jun-09 00:59N 39°53' W 075°10'0 0.0
2018-Jun-09 00:29N 39°53' W 075°10'0 0.0
2018-Jun-08 23:59N 39°53' W 075°10'0 0.1
2018-Jun-08 23:30N 39°53' W 075°10'2 3.5
2018-Jun-08 23:00N 39°53' W 075°12'4 7.7
2018-Jun-08 22:30N 39°51' W 075°17'5 9.0
2018-Jun-08 22:00N 39°50' W 075°22'510.7
2018-Jun-08 21:30N 39°47' W 075°28'510.5
2018-Jun-08 21:00N 39°42' W 075°31'510.2
2018-Jun-08 20:29N 39°37' W 075°35'4 7.9
2018-Jun-08 20:00N 39°34' W 075°34'4 8.5
2018-Jun-08 19:30N 39°33' W 075°40'5 9.3
2018-Jun-08 19:00N 39°32' W 075°46'5 9.7
2018-Jun-08 18:30N 39°32' W 075°52'510.5
2018-Jun-08 18:00N 39°29' W 075°57'510.1
2018-Jun-08 17:30N 39°25' W 076°02'5 9.4
2018-Jun-08 17:00N 39°23' W 076°07'5 9.3
2018-Jun-08 16:30N 39°20' W 076°12'9 8.7
2018-Jun-08 15:29N 39°12' W 076°16'4 8.4
2018-Jun-08 15:00N 39°09' W 076°20'4 9.1
2018-Jun-08 14:30N 39°10' W 076°25'5 9.1
2018-Jun-08 14:00N 39°12' W 076°31'3 6.1
2018-Jun-08 13:30N 39°13' W 076°34'1 1.3
2018-Jun-08 13:00N 39°13' W 076°35'0 0.0
2018-Jun-08 12:25N 39°13' W 076°35'0 0.0
2018-Jun-08 11:49N 39°13' W 076°35'0 0.0
2018-Jun-08 11:25N 39°13' W 076°35'0 0.0
2018-Jun-08 10:55N 39°13' W 076°35'0 0.0
2018-Jun-08 10:28N 39°13' W 076°35'0 0.0
2018-Jun-08 09:58N 39°13' W 076°35'0 0.0
2018-Jun-08 09:25N 39°13' W 076°35'0 0.0
2018-Jun-08 08:55N 39°13' W 076°35'0 0.0
2018-Jun-08 08:28N 39°13' W 076°35'0 0.0
2018-Jun-08 07:58N 39°13' W 076°35'0 0.0
2018-Jun-08 07:28N 39°13' W 076°35'0 0.0
2018-Jun-08 06:55N 39°13' W 076°35'0 0.0
2018-Jun-08 06:28N 39°13' W 076°35'0 0.0
2018-Jun-08 05:58N 39°13' W 076°35'0 0.0
2018-Jun-08 05:28N 39°13' W 076°35'0 0.0
2018-Jun-08 04:58N 39°13' W 076°35'0 0.0
2018-Jun-08 04:28N 39°13' W 076°35'0 0.0
2018-Jun-08 03:58N 39°13' W 076°35'0 0.0
2018-Jun-08 03:28N 39°13' W 076°35'  

Dump ship's entire track history